Lungerville, Pennsylvania
Current Conditions -  °F | °C
As of 12:54 AM on Tuesday 21 Oct 2014 (Local Time) from KIPT Reporting Station
Overcast Overcast  
Wind Chill: 50°   Ceiling: 7500
Heat Index: 50°   Visibility: 10mi
Dew Point: 42°   Wind: 0mph
Humidity: 74%   Direction: NA
Pressure: 29.87"   Gusts: NA
Location:  41.2442°N, 76.522°W
Report Text: KIPT 210454Z AUTO 00000KT 10SM SCT060 OVC075 10/06 A2987 RMK AO2 RAB23E38 SLP117 P0000 T01000056 401500011
Loading
Personal Weather Stations






























Interactive Weather Map
Tropical Storm Tracking
New forecast layout! Learn more

10-Day Weather Forecast

Advertisements
Track Severe Weather on mobile